Eurocargo Valencia — IBGZ — position and weather

sailwx.info

Track history (hours):
 
Tides and Currents Weather Stations Pressure Air Temp Water Temp Dewpoint Dewpoint Depression Visibility Wind Speed Wind Dir Waves Ship Positions

Eurocargo Valencia

Last reported at 2018-Apr-20 20:18 UTC. Time now 2018-Apr-21 04:12 UTC.
Position N 41°27' E 002°37'.

Length 196 m; draft 7.2 m.

Type: Cargo ship. MMSI: 247579000.

Date/timePositionNaut miles runAvg speedWind from/ knotsBaromVisibWave heightAir tempDewpointWater temp
2018-Apr-20 20:18N 41°27' E 002°37'515.7
2018-Apr-20 20:00N 41°25' E 002°31'815.8
2018-Apr-20 19:30N 41°21' E 002°22'815.8
2018-Apr-20 19:01N 41°17' E 002°13'4 8.6
2018-Apr-20 18:31N 41°21' E 002°10'1 1.7
2018-Apr-20 17:56N 41°22' E 002°11'0 0.0
2018-Apr-20 17:29N 41°22' E 002°11'0 0.0
2018-Apr-20 16:59N 41°22' E 002°11'0 0.0
2018-Apr-20 16:29N 41°22' E 002°11'0 0.0
2018-Apr-20 15:59N 41°22' E 002°11'0 0.0
2018-Apr-20 15:29N 41°22' E 002°11'0 0.0
2018-Apr-20 14:59N 41°22' E 002°11'0 0.0
2018-Apr-20 14:29N 41°22' E 002°11'0 0.0
2018-Apr-20 13:59N 41°22' E 002°11'0 0.0
2018-Apr-20 13:23N 41°22' E 002°11'0 0.0
2018-Apr-20 12:59N 41°22' E 002°11'0 0.0
2018-Apr-20 12:29N 41°22' E 002°11'0 0.0
2018-Apr-20 11:59N 41°22' E 002°11'0 0.0
2018-Apr-20 11:23N 41°22' E 002°11'0 0.0
2018-Apr-20 10:59N 41°22' E 002°11'0 0.0
2018-Apr-20 10:26N 41°22' E 002°11'0 0.0
2018-Apr-20 09:59N 41°22' E 002°11'0 0.0
2018-Apr-20 09:29N 41°22' E 002°11'0 0.0
2018-Apr-20 08:56N 41°22' E 002°11'0 0.0
2018-Apr-20 08:29N 41°22' E 002°11'0 0.0
2018-Apr-20 07:59N 41°22' E 002°11'1 2.6
2018-Apr-20 07:30N 41°21' E 002°10'4 8.3
2018-Apr-20 07:00N 41°17' E 002°11'1 2.9
2018-Apr-20 06:30N 41°17' E 002°13'3 6.9
2018-Apr-20 06:00N 41°18' E 002°17'815.7
2018-Apr-20 05:30N 41°22' E 002°27'23016.1
2018-Apr-19 15:14N 43°12' E 006°60'416.5
2018-Apr-19 15:00N 43°14' E 007°03'816.5
2018-Apr-19 14:30N 43°20' E 007°12'816.2
2018-Apr-19 14:00N 43°25' E 007°21'815.7
2018-Apr-19 13:29N 43°29' E 007°30'4016.6
2018-Apr-19 11:06N 43°53' E 008°14'216.0
2018-Apr-19 10:59N 43°54' E 008°16'815.7
2018-Apr-19 10:30N 44°01' E 008°21'816.5
2018-Apr-19 10:00N 44°08' E 008°27'816.7
2018-Apr-19 09:30N 44°16' E 008°31'3 5.6
2018-Apr-19 08:55N 44°19' E 008°30'0 0.0
2018-Apr-19 08:25N 44°19' E 008°30'0 0.0
2018-Apr-19 07:55N 44°19' E 008°30'0 0.0
2018-Apr-19 07:25N 44°19' E 008°30'0 0.0
2018-Apr-19 06:58N 44°19' E 008°30'0 0.0
2018-Apr-19 06:28N 44°19' E 008°30'0 0.0
2018-Apr-19 05:58N 44°19' E 008°30'0 0.0
2018-Apr-19 05:25N 44°19' E 008°30'0 0.0
2018-Apr-19 04:58N 44°19' E 008°30'0 1.0
2018-Apr-19 04:30N 44°19' E 008°30'3 6.8
2018-Apr-19 04:01N 44°17' E 008°34'815.6
2018-Apr-19 03:31N 44°12' E 008°43'815.9
2018-Apr-19 03:00N 44°08' E 008°52'816.1
2018-Apr-19 02:31N 44°03' E 009°01'816.3
2018-Apr-19 02:01N 43°58' E 009°10'816.5
2018-Apr-19 01:31N 43°53' E 009°19'816.5
2018-Apr-19 01:00N 43°48' E 009°28'816.3
2018-Apr-19 00:31N 43°44' E 009°37'816.3
2018-Apr-19 00:01N 43°39' E 009°47'816.7
2018-Apr-18 23:31N 43°34' E 009°56'816.8
2018-Apr-18 23:01N 43°29' E 010°06'815.0
2018-Apr-18 22:30N 43°32' E 010°16'3 6.4
2018-Apr-18 22:00N 43°34' E 010°19'1 1.3
2018-Apr-18 21:28N 43°35' E 010°19'0 0.0
2018-Apr-18 20:52N 43°35' E 010°19'0 0.0
2018-Apr-18 20:25N 43°35' E 010°19'0 0.0
2018-Apr-18 19:55N 43°35' E 010°19'0 0.0
2018-Apr-18 19:28N 43°35' E 010°19'0 0.0
2018-Apr-18 18:58N 43°35' E 010°19'0 0.0
2018-Apr-18 18:28N 43°35' E 010°19'0 0.0
2018-Apr-18 17:58N 43°35' E 010°19'0 0.0
2018-Apr-18 17:28N 43°35' E 010°19'0 0.0
2018-Apr-18 16:58N 43°35' E 010°19'0 0.0
2018-Apr-18 16:28N 43°35' E 010°19'0 0.0
2018-Apr-18 15:58N 43°35' E 010°19'0 0.0
2018-Apr-18 15:28N 43°35' E 010°19'0 0.9
2018-Apr-18 15:00N 43°34' E 010°19'2 4.9
2018-Apr-18 14:30N 43°32' E 010°17'3 5.7
2018-Apr-18 14:00N 43°30' E 010°14'815.1
2018-Apr-18 13:30N 43°30' E 010°04'815.9
2018-Apr-18 13:00N 43°35' E 009°55'816.1
2018-Apr-18 12:30N 43°39' E 009°46'815.7
2018-Apr-18 12:00N 43°44' E 009°37'815.8
2018-Apr-18 11:30N 43°49' E 009°28'815.5
2018-Apr-18 11:00N 43°53' E 009°19'815.6
2018-Apr-18 10:30N 43°58' E 009°11'815.7
2018-Apr-18 10:00N 44°03' E 009°02'816.1
2018-Apr-18 09:31N 44°07' E 008°53'815.6
2018-Apr-18 09:00N 44°12' E 008°44'816.0
2018-Apr-18 08:30N 44°17' E 008°35'4 8.7
2018-Apr-18 08:00N 44°19' E 008°30'0 0.0
2018-Apr-18 07:30N 44°19' E 008°30'0 0.0
2018-Apr-18 06:57N 44°19' E 008°30'0 0.0
2018-Apr-18 06:30N 44°19' E 008°30'0 0.0
2018-Apr-18 05:57N 44°19' E 008°30'0 0.0
2018-Apr-18 05:30N 44°19' E 008°30'0 0.0
2018-Apr-18 05:00N 44°19' E 008°30'0 0.5
2018-Apr-18 04:30N 44°19' E 008°30'3 6.3
2018-Apr-18 04:00N 44°16' E 008°31'612.5
2018-Apr-18 03:30N 44°10' E 008°27'713.1
2018-Apr-18 02:57N 44°05' E 008°20'4 9.8
2018-Apr-18 02:30N 44°04' E 008°26'511.0
2018-Apr-18 02:00N 43°59' E 008°21'511.0
2018-Apr-18 01:31N 43°55' E 008°18'4 8.7
2018-Apr-18 01:01N 43°59' E 008°19'611.0
2018-Apr-18 00:30N 43°55' E 008°14'612.3
2018-Apr-18 00:00N 43°51' E 008°07'612.8
2018-Apr-17 23:30N 43°48' E 007°60'713.4
2018-Apr-17 22:58N 43°44' E 007°51'1313.6
2018-Apr-17 22:01N 43°37' E 007°36'113.4
2018-Apr-17 21:57N 43°37' E 007°35'813.5
2018-Apr-17 21:23N 43°31' E 007°27'513.1
2018-Apr-17 21:01N 43°28' E 007°22'612.9
2018-Apr-17 20:30N 43°24' E 007°15'713.4
2018-Apr-17 20:00N 43°20' E 007°08'813.4
2018-Apr-17 19:25N 43°15' E 006°60'22314.6
2018-Apr-17 04:10N 41°26' E 002°36'215.6
2018-Apr-17 04:00N 41°25' E 002°33'815.8
2018-Apr-17 03:30N 41°21' E 002°24'816.0
2018-Apr-17 03:00N 41°18' E 002°14'4 8.4
2018-Apr-17 02:30N 41°20' E 002°10'2 3.4
2018-Apr-17 02:00N 41°22' E 002°11'0 0.0
2018-Apr-17 01:30N 41°22' E 002°11'0 0.0
2018-Apr-17 01:00N 41°22' E 002°11'0 0.0
2018-Apr-17 00:30N 41°22' E 002°11'0 0.0
2018-Apr-16 23:57N 41°22' E 002°11'0 0.0
2018-Apr-16 23:30N 41°22' E 002°11'0 0.0
2018-Apr-16 23:00N 41°22' E 002°11'0 0.0
2018-Apr-16 22:30N 41°22' E 002°11'0 0.0
2018-Apr-16 22:00N 41°22' E 002°11'0 0.0
2018-Apr-16 21:30N 41°22' E 002°11'0 0.0
2018-Apr-16 21:00N 41°22' E 002°11'0 0.0
2018-Apr-16 20:30N 41°22' E 002°11'0 0.0
2018-Apr-16 20:00N 41°22' E 002°11'0 0.0
2018-Apr-16 19:30N 41°22' E 002°11'0 0.0
2018-Apr-16 19:00N 41°22' E 002°11'0 0.0
2018-Apr-16 18:30N 41°22' E 002°11'0 0.0
2018-Apr-16 18:00N 41°22' E 002°11'0 0.1
2018-Apr-16 17:30N 41°22' E 002°11'3 6.2
2018-Apr-16 17:00N 41°19' E 002°10'5 9.8
2018-Apr-16 16:31N 41°18' E 002°17'815.7
2018-Apr-16 16:00N 41°22' E 002°26'23115.9
2018-Apr-16 01:32N 43°03' E 007°05'115.5
2018-Apr-16 01:28N 43°03' E 007°07'1015.6
2018-Apr-16 00:49N 43°06' E 007°20'515.6
2018-Apr-16 00:28N 43°07' E 007°27'816.0
2018-Apr-15 23:59N 43°09' E 007°38'815.7
2018-Apr-15 23:27N 43°10' E 007°49'2515.6
2018-Apr-15 21:52N 43°15' E 008°22'615.8
2018-Apr-15 21:29N 43°16' E 008°31'816.1
2018-Apr-15 21:00N 43°18' E 008°41'815.8
2018-Apr-15 20:30N 43°20' E 008°51'815.5
2018-Apr-15 20:00N 43°22' E 009°02'815.3
2018-Apr-15 19:30N 43°24' E 009°12'714.9
2018-Apr-15 19:01N 43°25' E 009°22'815.0
2018-Apr-15 18:31N 43°27' E 009°32'815.0
2018-Apr-15 18:00N 43°29' E 009°42'815.5
2018-Apr-15 17:30N 43°31' E 009°52'816.1
2018-Apr-15 17:01N 43°30' E 010°03'815.8
2018-Apr-15 16:31N 43°31' E 010°14'4 8.0
2018-Apr-15 16:01N 43°34' E 010°18'1 1.4
2018-Apr-15 15:26N 43°35' E 010°19'0 0.0
2018-Apr-15 14:59N 43°35' E 010°19'0 0.0
2018-Apr-15 14:29N 43°35' E 010°19'0 0.0
2018-Apr-15 13:59N 43°35' E 010°19'0 0.0
2018-Apr-15 13:29N 43°35' E 010°19'0 0.0
2018-Apr-15 12:59N 43°35' E 010°19'0 0.0
2018-Apr-15 12:29N 43°35' E 010°19'0 0.0
2018-Apr-15 11:59N 43°35' E 010°19'0 0.0
2018-Apr-15 11:29N 43°35' E 010°19'0 0.0
2018-Apr-15 10:59N 43°35' E 010°19'0 0.0
2018-Apr-15 10:29N 43°35' E 010°19'0 0.0
2018-Apr-15 09:59N 43°35' E 010°19'0 0.0
2018-Apr-15 09:29N 43°35' E 010°19'0 0.0
2018-Apr-15 08:59N 43°35' E 010°19'0 0.0
2018-Apr-15 08:29N 43°35' E 010°19'0 0.0
2018-Apr-15 07:59N 43°35' E 010°19'0 0.0
2018-Apr-15 07:30N 43°35' E 010°19'3 5.7
2018-Apr-15 07:00N 43°32' E 010°17'4 7.7
2018-Apr-15 06:30N 43°30' E 010°13'612.2
2018-Apr-15 06:01N 43°30' E 010°04'815.3
2018-Apr-15 05:30N 43°34' E 009°55'815.9
2018-Apr-15 05:00N 43°39' E 009°47'815.8
2018-Apr-15 04:31N 43°44' E 009°38'815.4
2018-Apr-15 04:00N 43°48' E 009°29'815.3
2018-Apr-15 03:31N 43°53' E 009°21'715.0
2018-Apr-15 03:01N 43°57' E 009°12'815.2
2018-Apr-15 02:31N 44°02' E 009°04'815.5
2018-Apr-15 02:01N 44°06' E 008°55'815.9
2018-Apr-15 01:31N 44°11' E 008°46'815.7
2018-Apr-15 01:00N 44°16' E 008°38'612.7
2018-Apr-15 00:30N 44°19' E 008°30'0 0.1
2018-Apr-14 23:55N 44°19' E 008°30'0 0.0
2018-Apr-14 23:28N 44°19' E 008°30'0 0.0
2018-Apr-14 22:58N 44°19' E 008°30'0 0.0
2018-Apr-14 22:25N 44°19' E 008°30'0 0.0
2018-Apr-14 21:58N 44°19' E 008°30'0 0.0
2018-Apr-14 21:25N 44°19' E 008°30'0 0.0
2018-Apr-14 20:55N 44°19' E 008°30'0 0.0
2018-Apr-14 20:25N 44°19' E 008°30'0 0.0
2018-Apr-14 19:58N 44°19' E 008°30'0 0.0
2018-Apr-14 19:25N 44°19' E 008°30'0 0.0
2018-Apr-14 18:58N 44°19' E 008°30'0 1.0
2018-Apr-14 18:30N 44°19' E 008°30'4 7.5
2018-Apr-14 18:00N 44°15' E 008°31'713.3
2018-Apr-14 17:30N 44°09' E 008°28'713.6
2018-Apr-14 17:00N 44°04' E 008°22'814.6
2018-Apr-14 16:26N 43°57' E 008°15'3514.2
2018-Apr-14 13:57N 43°35' E 007°37'713.9
2018-Apr-14 13:28N 43°31' E 007°29'614.1
2018-Apr-14 13:00N 43°27' E 007°22'714.3
2018-Apr-14 12:30N 43°23' E 007°15'714.9
2018-Apr-14 12:00N 43°18' E 007°07'22814.6
2018-Apr-13 20:18N 41°26' E 002°37'515.7
2018-Apr-13 20:00N 41°24' E 002°32'815.6
2018-Apr-13 19:31N 41°20' E 002°23'815.7
2018-Apr-13 19:00N 41°17' E 002°13'4 8.5
2018-Apr-13 18:30N 41°21' E 002°10'1 1.9
2018-Apr-13 17:58N 41°22' E 002°11'0 0.0
2018-Apr-13 16:49N 41°22' E 002°11'0 0.0
2018-Apr-13 16:28N 41°22' E 002°11'0 0.0
2018-Apr-13 15:58N 41°22' E 002°11'0 0.0
2018-Apr-13 15:28N 41°22' E 002°11'0 0.0
2018-Apr-13 14:58N 41°22' E 002°11'0 0.0
2018-Apr-13 14:28N 41°22' E 002°11'0 0.0
2018-Apr-13 13:58N 41°22' E 002°11'0 0.0
2018-Apr-13 13:28N 41°22' E 002°11'0 0.0
2018-Apr-13 12:58N 41°22' E 002°11'0 0.0
2018-Apr-13 12:28N 41°22' E 002°11'0 0.0
2018-Apr-13 11:58N 41°22' E 002°11'0 0.0
2018-Apr-13 11:28N 41°22' E 002°11'0 0.0
2018-Apr-13 10:55N 41°22' E 002°11'0 0.0
2018-Apr-13 10:28N 41°22' E 002°11'0 0.0
2018-Apr-13 09:58N 41°22' E 002°11'0 0.0
2018-Apr-13 09:28N 41°22' E 002°11'0 0.0
2018-Apr-13 08:58N 41°22' E 002°11'0 0.0
2018-Apr-13 08:28N 41°22' E 002°11'0 0.0
2018-Apr-13 07:58N 41°22' E 002°11'0 0.0
2018-Apr-13 07:28N 41°22' E 002°11'0 0.0
2018-Apr-13 06:58N 41°22' E 002°11'0 0.0
2018-Apr-13 06:28N 41°22' E 002°11'0 0.2
2018-Apr-13 06:01N 41°22' E 002°11'2 4.2
2018-Apr-13 05:30N 41°20' E 002°10'4 7.2
2018-Apr-13 05:00N 41°16' E 002°12'1 2.4
2018-Apr-13 04:30N 41°16' E 002°14'3 6.4
2018-Apr-13 04:00N 41°16' E 002°18'713.5
2018-Apr-13 03:30N 41°16' E 002°27'10 9.2
2018-Apr-13 02:26N 41°22' E 002°37'22614.2
2018-Apr-12 10:33N 43°16' E 007°00'116.4
2018-Apr-12 10:30N 43°17' E 007°01'815.8
2018-Apr-12 10:00N 43°21' E 007°10'815.2
2018-Apr-12 09:30N 43°25' E 007°19'816.2
2018-Apr-12 08:58N 43°30' E 007°28'4316.5
2018-Apr-12 06:22N 43°56' E 008°16'617.1
2018-Apr-12 06:00N 44°01' E 008°21'816.7
2018-Apr-12 05:30N 44°08' E 008°27'816.1
2018-Apr-12 05:00N 44°16' E 008°31'3 5.8
2018-Apr-12 04:28N 44°19' E 008°30'0 0.0
2018-Apr-12 04:00N 44°19' E 008°30'0 0.0
2018-Apr-12 03:30N 44°19' E 008°30'0 0.0
2018-Apr-12 03:00N 44°19' E 008°30'0 0.0
2018-Apr-12 02:30N 44°19' E 008°30'0 0.0
2018-Apr-12 02:00N 44°19' E 008°30'0 0.0
2018-Apr-12 01:30N 44°19' E 008°30'0 0.0
2018-Apr-12 01:00N 44°19' E 008°30'0 0.2
2018-Apr-12 00:30N 44°19' E 008°30'1 2.4
2018-Apr-12 00:00N 44°19' E 008°32'2 4.8
2018-Apr-11 23:30N 44°17' E 008°34'612.4
2018-Apr-11 23:00N 44°14' E 008°42'612.9
2018-Apr-11 22:31N 44°10' E 008°49'714.7
2018-Apr-11 22:00N 44°05' E 008°57'714.8
2018-Apr-11 21:30N 44°01' E 009°05'815.3
2018-Apr-11 21:00N 43°57' E 009°14'816.7
2018-Apr-11 20:30N 43°52' E 009°23'917.4
2018-Apr-11 20:01N 43°46' E 009°33'917.0
2018-Apr-11 19:30N 43°41' E 009°42'816.7
2018-Apr-11 19:00N 43°36' E 009°51'817.1
2018-Apr-11 18:31N 43°32' E 010°01'815.9
2018-Apr-11 18:00N 43°31' E 010°12'5 9.6
2018-Apr-11 17:30N 43°34' E 010°18'1 2.7
2018-Apr-11 16:58N 43°35' E 010°19'0 0.0
2018-Apr-11 16:25N 43°35' E 010°19'0 0.0
2018-Apr-11 15:58N 43°35' E 010°19'0 0.0
2018-Apr-11 15:19N 43°35' E 010°19'0 0.0
2018-Apr-11 14:58N 43°35' E 010°19'0 0.0
2018-Apr-11 14:22N 43°35' E 010°19'0 0.0
2018-Apr-11 13:52N 43°35' E 010°19'0 0.0
2018-Apr-11 13:28N 43°35' E 010°19'0 0.0
2018-Apr-11 12:58N 43°35' E 010°19'0 0.0
2018-Apr-11 12:28N 43°35' E 010°19'0 0.0
2018-Apr-11 11:55N 43°35' E 010°19'2 4.2
2018-Apr-11 11:30N 43°33' E 010°17'3 6.0
2018-Apr-11 11:00N 43°31' E 010°15'1 2.7
2018-Apr-11 10:31N 43°30' E 010°14'2 3.1
2018-Apr-11 10:01N 43°30' E 010°12'510.1
2018-Apr-11 09:30N 43°30' E 010°05'815.8
2018-Apr-11 09:00N 43°34' E 009°56'815.8
2018-Apr-11 08:30N 43°39' E 009°47'815.9
2018-Apr-11 08:00N 43°43' E 009°38'815.4
2018-Apr-11 07:30N 43°48' E 009°30'815.2
2018-Apr-11 07:01N 43°52' E 009°21'815.8
2018-Apr-11 06:30N 43°57' E 009°12'815.9
2018-Apr-11 06:00N 44°02' E 009°04'816.0
2018-Apr-11 05:30N 44°07' E 008°55'815.7
2018-Apr-11 05:00N 44°11' E 008°46'816.0
2018-Apr-11 04:30N 44°16' E 008°37'610.4
2018-Apr-11 03:57N 44°19' E 008°30'0 0.0
2018-Apr-11 03:30N 44°19' E 008°30'0 0.0
2018-Apr-11 03:00N 44°19' E 008°30'0 0.0
2018-Apr-11 02:30N 44°19' E 008°30'0 0.0
2018-Apr-11 02:00N 44°19' E 008°30'0 0.0
2018-Apr-11 01:30N 44°19' E 008°30'0 0.0
2018-Apr-11 01:00N 44°19' E 008°30'0 0.0
2018-Apr-11 00:30N 44°19' E 008°30'0 0.0
2018-Apr-11 00:00N 44°19' E 008°30'0 0.0
2018-Apr-10 23:30N 44°19' E 008°30'0 0.0
2018-Apr-10 23:00N 44°19' E 008°30'0 0.0
2018-Apr-10 22:30N 44°19' E 008°30'2 3.5
2018-Apr-10 22:00N 44°18' E 008°32'3 6.0
2018-Apr-10 21:30N 44°16' E 008°34'3 6.7
2018-Apr-10 21:00N 44°13' E 008°31'612.7
2018-Apr-10 20:30N 44°08' E 008°27'  
Track history (hours):
 
Tides and Currents Weather Stations Pressure Air Temp Water Temp Dewpoint Dewpoint Depression Visibility Wind Speed Wind Dir Waves Ship Positions

Eurocargo Valencia

Last reported at 2018-Apr-20 20:18 UTC. Time now 2018-Apr-21 04:12 UTC.
Position N 41°27' E 002°37'.

Length 196 m; draft 7.2 m.

Type: Cargo ship. MMSI: 247579000.

Date/timePositionNaut miles runAvg speedWind from/ knotsBaromVisibWave heightAir tempDewpointWater temp
2018-Apr-20 20:18N 41°27' E 002°37'515.7
2018-Apr-20 20:00N 41°25' E 002°31'815.8
2018-Apr-20 19:30N 41°21' E 002°22'815.8
2018-Apr-20 19:01N 41°17' E 002°13'4 8.6
2018-Apr-20 18:31N 41°21' E 002°10'1 1.7
2018-Apr-20 17:56N 41°22' E 002°11'0 0.0
2018-Apr-20 17:29N 41°22' E 002°11'0 0.0
2018-Apr-20 16:59N 41°22' E 002°11'0 0.0
2018-Apr-20 16:29N 41°22' E 002°11'0 0.0
2018-Apr-20 15:59N 41°22' E 002°11'0 0.0
2018-Apr-20 15:29N 41°22' E 002°11'0 0.0
2018-Apr-20 14:59N 41°22' E 002°11'0 0.0
2018-Apr-20 14:29N 41°22' E 002°11'0 0.0
2018-Apr-20 13:59N 41°22' E 002°11'0 0.0
2018-Apr-20 13:23N 41°22' E 002°11'0 0.0
2018-Apr-20 12:59N 41°22' E 002°11'0 0.0
2018-Apr-20 12:29N 41°22' E 002°11'0 0.0
2018-Apr-20 11:59N 41°22' E 002°11'0 0.0
2018-Apr-20 11:23N 41°22' E 002°11'0 0.0
2018-Apr-20 10:59N 41°22' E 002°11'0 0.0
2018-Apr-20 10:26N 41°22' E 002°11'0 0.0
2018-Apr-20 09:59N 41°22' E 002°11'0 0.0
2018-Apr-20 09:29N 41°22' E 002°11'0 0.0
2018-Apr-20 08:56N 41°22' E 002°11'0 0.0
2018-Apr-20 08:29N 41°22' E 002°11'0 0.0
2018-Apr-20 07:59N 41°22' E 002°11'1 2.6
2018-Apr-20 07:30N 41°21' E 002°10'4 8.3
2018-Apr-20 07:00N 41°17' E 002°11'1 2.9
2018-Apr-20 06:30N 41°17' E 002°13'3 6.9
2018-Apr-20 06:00N 41°18' E 002°17'815.7
2018-Apr-20 05:30N 41°22' E 002°27'23016.1
2018-Apr-19 15:14N 43°12' E 006°60'416.5
2018-Apr-19 15:00N 43°14' E 007°03'816.5
2018-Apr-19 14:30N 43°20' E 007°12'816.2
2018-Apr-19 14:00N 43°25' E 007°21'815.7
2018-Apr-19 13:29N 43°29' E 007°30'4016.6
2018-Apr-19 11:06N 43°53' E 008°14'216.0
2018-Apr-19 10:59N 43°54' E 008°16'815.7
2018-Apr-19 10:30N 44°01' E 008°21'816.5
2018-Apr-19 10:00N 44°08' E 008°27'816.7
2018-Apr-19 09:30N 44°16' E 008°31'3 5.6
2018-Apr-19 08:55N 44°19' E 008°30'0 0.0
2018-Apr-19 08:25N 44°19' E 008°30'0 0.0
2018-Apr-19 07:55N 44°19' E 008°30'0 0.0
2018-Apr-19 07:25N 44°19' E 008°30'0 0.0
2018-Apr-19 06:58N 44°19' E 008°30'0 0.0
2018-Apr-19 06:28N 44°19' E 008°30'0 0.0
2018-Apr-19 05:58N 44°19' E 008°30'0 0.0
2018-Apr-19 05:25N 44°19' E 008°30'0 0.0
2018-Apr-19 04:58N 44°19' E 008°30'0 1.0
2018-Apr-19 04:30N 44°19' E 008°30'3 6.8
2018-Apr-19 04:01N 44°17' E 008°34'815.6
2018-Apr-19 03:31N 44°12' E 008°43'815.9
2018-Apr-19 03:00N 44°08' E 008°52'816.1
2018-Apr-19 02:31N 44°03' E 009°01'816.3
2018-Apr-19 02:01N 43°58' E 009°10'816.5
2018-Apr-19 01:31N 43°53' E 009°19'816.5
2018-Apr-19 01:00N 43°48' E 009°28'816.3
2018-Apr-19 00:31N 43°44' E 009°37'816.3
2018-Apr-19 00:01N 43°39' E 009°47'816.7
2018-Apr-18 23:31N 43°34' E 009°56'816.8
2018-Apr-18 23:01N 43°29' E 010°06'815.0
2018-Apr-18 22:30N 43°32' E 010°16'3 6.4
2018-Apr-18 22:00N 43°34' E 010°19'1 1.3
2018-Apr-18 21:28N 43°35' E 010°19'0 0.0
2018-Apr-18 20:52N 43°35' E 010°19'0 0.0
2018-Apr-18 20:25N 43°35' E 010°19'0 0.0
2018-Apr-18 19:55N 43°35' E 010°19'0 0.0
2018-Apr-18 19:28N 43°35' E 010°19'0 0.0
2018-Apr-18 18:58N 43°35' E 010°19'0 0.0
2018-Apr-18 18:28N 43°35' E 010°19'0 0.0
2018-Apr-18 17:58N 43°35' E 010°19'0 0.0
2018-Apr-18 17:28N 43°35' E 010°19'0 0.0
2018-Apr-18 16:58N 43°35' E 010°19'0 0.0
2018-Apr-18 16:28N 43°35' E 010°19'0 0.0
2018-Apr-18 15:58N 43°35' E 010°19'0 0.0
2018-Apr-18 15:28N 43°35' E 010°19'0 0.9
2018-Apr-18 15:00N 43°34' E 010°19'2 4.9
2018-Apr-18 14:30N 43°32' E 010°17'3 5.7
2018-Apr-18 14:00N 43°30' E 010°14'815.1
2018-Apr-18 13:30N 43°30' E 010°04'815.9
2018-Apr-18 13:00N 43°35' E 009°55'816.1
2018-Apr-18 12:30N 43°39' E 009°46'815.7
2018-Apr-18 12:00N 43°44' E 009°37'815.8
2018-Apr-18 11:30N 43°49' E 009°28'815.5
2018-Apr-18 11:00N 43°53' E 009°19'815.6
2018-Apr-18 10:30N 43°58' E 009°11'815.7
2018-Apr-18 10:00N 44°03' E 009°02'816.1
2018-Apr-18 09:31N 44°07' E 008°53'815.6
2018-Apr-18 09:00N 44°12' E 008°44'816.0
2018-Apr-18 08:30N 44°17' E 008°35'4 8.7
2018-Apr-18 08:00N 44°19' E 008°30'0 0.0
2018-Apr-18 07:30N 44°19' E 008°30'0 0.0
2018-Apr-18 06:57N 44°19' E 008°30'0 0.0
2018-Apr-18 06:30N 44°19' E 008°30'0 0.0
2018-Apr-18 05:57N 44°19' E 008°30'0 0.0
2018-Apr-18 05:30N 44°19' E 008°30'0 0.0
2018-Apr-18 05:00N 44°19' E 008°30'0 0.5
2018-Apr-18 04:30N 44°19' E 008°30'3 6.3
2018-Apr-18 04:00N 44°16' E 008°31'612.5
2018-Apr-18 03:30N 44°10' E 008°27'713.1
2018-Apr-18 02:57N 44°05' E 008°20'4 9.8
2018-Apr-18 02:30N 44°04' E 008°26'511.0
2018-Apr-18 02:00N 43°59' E 008°21'511.0
2018-Apr-18 01:31N 43°55' E 008°18'4 8.7
2018-Apr-18 01:01N 43°59' E 008°19'611.0
2018-Apr-18 00:30N 43°55' E 008°14'612.3
2018-Apr-18 00:00N 43°51' E 008°07'612.8
2018-Apr-17 23:30N 43°48' E 007°60'713.4
2018-Apr-17 22:58N 43°44' E 007°51'1313.6
2018-Apr-17 22:01N 43°37' E 007°36'113.4
2018-Apr-17 21:57N 43°37' E 007°35'813.5
2018-Apr-17 21:23N 43°31' E 007°27'513.1
2018-Apr-17 21:01N 43°28' E 007°22'612.9
2018-Apr-17 20:30N 43°24' E 007°15'713.4
2018-Apr-17 20:00N 43°20' E 007°08'813.4
2018-Apr-17 19:25N 43°15' E 006°60'22314.6
2018-Apr-17 04:10N 41°26' E 002°36'215.6
2018-Apr-17 04:00N 41°25' E 002°33'815.8
2018-Apr-17 03:30N 41°21' E 002°24'816.0
2018-Apr-17 03:00N 41°18' E 002°14'4 8.4
2018-Apr-17 02:30N 41°20' E 002°10'2 3.4
2018-Apr-17 02:00N 41°22' E 002°11'0 0.0
2018-Apr-17 01:30N 41°22' E 002°11'0 0.0
2018-Apr-17 01:00N 41°22' E 002°11'0 0.0
2018-Apr-17 00:30N 41°22' E 002°11'0 0.0
2018-Apr-16 23:57N 41°22' E 002°11'0 0.0
2018-Apr-16 23:30N 41°22' E 002°11'0 0.0
2018-Apr-16 23:00N 41°22' E 002°11'0 0.0
2018-Apr-16 22:30N 41°22' E 002°11'0 0.0
2018-Apr-16 22:00N 41°22' E 002°11'0 0.0
2018-Apr-16 21:30N 41°22' E 002°11'0 0.0
2018-Apr-16 21:00N 41°22' E 002°11'0 0.0
2018-Apr-16 20:30N 41°22' E 002°11'0 0.0
2018-Apr-16 20:00N 41°22' E 002°11'0 0.0
2018-Apr-16 19:30N 41°22' E 002°11'0 0.0
2018-Apr-16 19:00N 41°22' E 002°11'0 0.0
2018-Apr-16 18:30N 41°22' E 002°11'0 0.0
2018-Apr-16 18:00N 41°22' E 002°11'0 0.1
2018-Apr-16 17:30N 41°22' E 002°11'3 6.2
2018-Apr-16 17:00N 41°19' E 002°10'5 9.8
2018-Apr-16 16:31N 41°18' E 002°17'815.7
2018-Apr-16 16:00N 41°22' E 002°26'23115.9
2018-Apr-16 01:32N 43°03' E 007°05'115.5
2018-Apr-16 01:28N 43°03' E 007°07'1015.6
2018-Apr-16 00:49N 43°06' E 007°20'515.6
2018-Apr-16 00:28N 43°07' E 007°27'816.0
2018-Apr-15 23:59N 43°09' E 007°38'815.7
2018-Apr-15 23:27N 43°10' E 007°49'2515.6
2018-Apr-15 21:52N 43°15' E 008°22'615.8
2018-Apr-15 21:29N 43°16' E 008°31'816.1
2018-Apr-15 21:00N 43°18' E 008°41'815.8
2018-Apr-15 20:30N 43°20' E 008°51'815.5
2018-Apr-15 20:00N 43°22' E 009°02'815.3
2018-Apr-15 19:30N 43°24' E 009°12'714.9
2018-Apr-15 19:01N 43°25' E 009°22'815.0
2018-Apr-15 18:31N 43°27' E 009°32'815.0
2018-Apr-15 18:00N 43°29' E 009°42'815.5
2018-Apr-15 17:30N 43°31' E 009°52'816.1
2018-Apr-15 17:01N 43°30' E 010°03'815.8
2018-Apr-15 16:31N 43°31' E 010°14'4 8.0
2018-Apr-15 16:01N 43°34' E 010°18'1 1.4
2018-Apr-15 15:26N 43°35' E 010°19'0 0.0
2018-Apr-15 14:59N 43°35' E 010°19'0 0.0
2018-Apr-15 14:29N 43°35' E 010°19'0 0.0
2018-Apr-15 13:59N 43°35' E 010°19'0 0.0
2018-Apr-15 13:29N 43°35' E 010°19'0 0.0
2018-Apr-15 12:59N 43°35' E 010°19'0 0.0
2018-Apr-15 12:29N 43°35' E 010°19'0 0.0
2018-Apr-15 11:59N 43°35' E 010°19'0 0.0
2018-Apr-15 11:29N 43°35' E 010°19'0 0.0
2018-Apr-15 10:59N 43°35' E 010°19'0 0.0
2018-Apr-15 10:29N 43°35' E 010°19'0 0.0
2018-Apr-15 09:59N 43°35' E 010°19'0 0.0
2018-Apr-15 09:29N 43°35' E 010°19'0 0.0
2018-Apr-15 08:59N 43°35' E 010°19'0 0.0
2018-Apr-15 08:29N 43°35' E 010°19'0 0.0
2018-Apr-15 07:59N 43°35' E 010°19'0 0.0
2018-Apr-15 07:30N 43°35' E 010°19'3 5.7
2018-Apr-15 07:00N 43°32' E 010°17'4 7.7
2018-Apr-15 06:30N 43°30' E 010°13'612.2
2018-Apr-15 06:01N 43°30' E 010°04'815.3
2018-Apr-15 05:30N 43°34' E 009°55'815.9
2018-Apr-15 05:00N 43°39' E 009°47'815.8
2018-Apr-15 04:31N 43°44' E 009°38'815.4
2018-Apr-15 04:00N 43°48' E 009°29'815.3
2018-Apr-15 03:31N 43°53' E 009°21'715.0
2018-Apr-15 03:01N 43°57' E 009°12'815.2
2018-Apr-15 02:31N 44°02' E 009°04'815.5
2018-Apr-15 02:01N 44°06' E 008°55'815.9
2018-Apr-15 01:31N 44°11' E 008°46'815.7
2018-Apr-15 01:00N 44°16' E 008°38'612.7
2018-Apr-15 00:30N 44°19' E 008°30'0 0.1
2018-Apr-14 23:55N 44°19' E 008°30'0 0.0
2018-Apr-14 23:28N 44°19' E 008°30'0 0.0
2018-Apr-14 22:58N 44°19' E 008°30'0 0.0
2018-Apr-14 22:25N 44°19' E 008°30'0 0.0
2018-Apr-14 21:58N 44°19' E 008°30'0 0.0
2018-Apr-14 21:25N 44°19' E 008°30'0 0.0
2018-Apr-14 20:55N 44°19' E 008°30'0 0.0
2018-Apr-14 20:25N 44°19' E 008°30'0 0.0
2018-Apr-14 19:58N 44°19' E 008°30'0 0.0
2018-Apr-14 19:25N 44°19' E 008°30'0 0.0
2018-Apr-14 18:58N 44°19' E 008°30'0 1.0
2018-Apr-14 18:30N 44°19' E 008°30'4 7.5
2018-Apr-14 18:00N 44°15' E 008°31'713.3
2018-Apr-14 17:30N 44°09' E 008°28'713.6
2018-Apr-14 17:00N 44°04' E 008°22'814.6
2018-Apr-14 16:26N 43°57' E 008°15'3514.2
2018-Apr-14 13:57N 43°35' E 007°37'713.9
2018-Apr-14 13:28N 43°31' E 007°29'614.1
2018-Apr-14 13:00N 43°27' E 007°22'714.3
2018-Apr-14 12:30N 43°23' E 007°15'714.9
2018-Apr-14 12:00N 43°18' E 007°07'22814.6
2018-Apr-13 20:18N 41°26' E 002°37'515.7
2018-Apr-13 20:00N 41°24' E 002°32'815.6
2018-Apr-13 19:31N 41°20' E 002°23'815.7
2018-Apr-13 19:00N 41°17' E 002°13'4 8.5
2018-Apr-13 18:30N 41°21' E 002°10'1 1.9
2018-Apr-13 17:58N 41°22' E 002°11'0 0.0
2018-Apr-13 16:49N 41°22' E 002°11'0 0.0
2018-Apr-13 16:28N 41°22' E 002°11'0 0.0
2018-Apr-13 15:58N 41°22' E 002°11'0 0.0
2018-Apr-13 15:28N 41°22' E 002°11'0 0.0
2018-Apr-13 14:58N 41°22' E 002°11'0 0.0
2018-Apr-13 14:28N 41°22' E 002°11'0 0.0
2018-Apr-13 13:58N 41°22' E 002°11'0 0.0
2018-Apr-13 13:28N 41°22' E 002°11'0 0.0
2018-Apr-13 12:58N 41°22' E 002°11'0 0.0
2018-Apr-13 12:28N 41°22' E 002°11'0 0.0
2018-Apr-13 11:58N 41°22' E 002°11'0 0.0
2018-Apr-13 11:28N 41°22' E 002°11'0 0.0
2018-Apr-13 10:55N 41°22' E 002°11'0 0.0
2018-Apr-13 10:28N 41°22' E 002°11'0 0.0
2018-Apr-13 09:58N 41°22' E 002°11'0 0.0
2018-Apr-13 09:28N 41°22' E 002°11'0 0.0
2018-Apr-13 08:58N 41°22' E 002°11'0 0.0
2018-Apr-13 08:28N 41°22' E 002°11'0 0.0
2018-Apr-13 07:58N 41°22' E 002°11'0 0.0
2018-Apr-13 07:28N 41°22' E 002°11'0 0.0
2018-Apr-13 06:58N 41°22' E 002°11'0 0.0
2018-Apr-13 06:28N 41°22' E 002°11'0 0.2
2018-Apr-13 06:01N 41°22' E 002°11'2 4.2
2018-Apr-13 05:30N 41°20' E 002°10'4 7.2
2018-Apr-13 05:00N 41°16' E 002°12'1 2.4
2018-Apr-13 04:30N 41°16' E 002°14'3 6.4
2018-Apr-13 04:00N 41°16' E 002°18'713.5
2018-Apr-13 03:30N 41°16' E 002°27'10 9.2
2018-Apr-13 02:26N 41°22' E 002°37'22614.2
2018-Apr-12 10:33N 43°16' E 007°00'116.4
2018-Apr-12 10:30N 43°17' E 007°01'815.8
2018-Apr-12 10:00N 43°21' E 007°10'815.2
2018-Apr-12 09:30N 43°25' E 007°19'816.2
2018-Apr-12 08:58N 43°30' E 007°28'4316.5
2018-Apr-12 06:22N 43°56' E 008°16'617.1
2018-Apr-12 06:00N 44°01' E 008°21'816.7
2018-Apr-12 05:30N 44°08' E 008°27'816.1
2018-Apr-12 05:00N 44°16' E 008°31'3 5.8
2018-Apr-12 04:28N 44°19' E 008°30'0 0.0
2018-Apr-12 04:00N 44°19' E 008°30'0 0.0
2018-Apr-12 03:30N 44°19' E 008°30'0 0.0
2018-Apr-12 03:00N 44°19' E 008°30'0 0.0
2018-Apr-12 02:30N 44°19' E 008°30'0 0.0
2018-Apr-12 02:00N 44°19' E 008°30'0 0.0
2018-Apr-12 01:30N 44°19' E 008°30'0 0.0
2018-Apr-12 01:00N 44°19' E 008°30'0 0.2
2018-Apr-12 00:30N 44°19' E 008°30'1 2.4
2018-Apr-12 00:00N 44°19' E 008°32'2 4.8
2018-Apr-11 23:30N 44°17' E 008°34'612.4
2018-Apr-11 23:00N 44°14' E 008°42'612.9
2018-Apr-11 22:31N 44°10' E 008°49'714.7
2018-Apr-11 22:00N 44°05' E 008°57'714.8
2018-Apr-11 21:30N 44°01' E 009°05'815.3
2018-Apr-11 21:00N 43°57' E 009°14'816.7
2018-Apr-11 20:30N 43°52' E 009°23'917.4
2018-Apr-11 20:01N 43°46' E 009°33'917.0
2018-Apr-11 19:30N 43°41' E 009°42'816.7
2018-Apr-11 19:00N 43°36' E 009°51'817.1
2018-Apr-11 18:31N 43°32' E 010°01'815.9
2018-Apr-11 18:00N 43°31' E 010°12'5 9.6
2018-Apr-11 17:30N 43°34' E 010°18'1 2.7
2018-Apr-11 16:58N 43°35' E 010°19'0 0.0
2018-Apr-11 16:25N 43°35' E 010°19'0 0.0
2018-Apr-11 15:58N 43°35' E 010°19'0 0.0
2018-Apr-11 15:19N 43°35' E 010°19'0 0.0
2018-Apr-11 14:58N 43°35' E 010°19'0 0.0
2018-Apr-11 14:22N 43°35' E 010°19'0 0.0
2018-Apr-11 13:52N 43°35' E 010°19'0 0.0
2018-Apr-11 13:28N 43°35' E 010°19'0 0.0
2018-Apr-11 12:58N 43°35' E 010°19'0 0.0
2018-Apr-11 12:28N 43°35' E 010°19'0 0.0
2018-Apr-11 11:55N 43°35' E 010°19'2 4.2
2018-Apr-11 11:30N 43°33' E 010°17'3 6.0
2018-Apr-11 11:00N 43°31' E 010°15'1 2.7
2018-Apr-11 10:31N 43°30' E 010°14'2 3.1
2018-Apr-11 10:01N 43°30' E 010°12'510.1
2018-Apr-11 09:30N 43°30' E 010°05'815.8
2018-Apr-11 09:00N 43°34' E 009°56'815.8
2018-Apr-11 08:30N 43°39' E 009°47'815.9
2018-Apr-11 08:00N 43°43' E 009°38'815.4
2018-Apr-11 07:30N 43°48' E 009°30'815.2
2018-Apr-11 07:01N 43°52' E 009°21'815.8
2018-Apr-11 06:30N 43°57' E 009°12'815.9
2018-Apr-11 06:00N 44°02' E 009°04'816.0
2018-Apr-11 05:30N 44°07' E 008°55'815.7
2018-Apr-11 05:00N 44°11' E 008°46'816.0
2018-Apr-11 04:30N 44°16' E 008°37'610.4
2018-Apr-11 03:57N 44°19' E 008°30'0 0.0
2018-Apr-11 03:30N 44°19' E 008°30'0 0.0
2018-Apr-11 03:00N 44°19' E 008°30'0 0.0
2018-Apr-11 02:30N 44°19' E 008°30'0 0.0
2018-Apr-11 02:00N 44°19' E 008°30'0 0.0
2018-Apr-11 01:30N 44°19' E 008°30'0 0.0
2018-Apr-11 01:00N 44°19' E 008°30'0 0.0
2018-Apr-11 00:30N 44°19' E 008°30'0 0.0
2018-Apr-11 00:00N 44°19' E 008°30'0 0.0
2018-Apr-10 23:30N 44°19' E 008°30'0 0.0
2018-Apr-10 23:00N 44°19' E 008°30'0 0.0
2018-Apr-10 22:30N 44°19' E 008°30'2 3.5
2018-Apr-10 22:00N 44°18' E 008°32'3 6.0
2018-Apr-10 21:30N 44°16' E 008°34'3 6.7
2018-Apr-10 21:00N 44°13' E 008°31'612.7
2018-Apr-10 20:30N 44°08' E 008°27'  

Dump ship's entire track history